Time;durP1;ratioP1;P1;durP2;ratioP2;P2;SDS_P1;SDS_P2;PMS_P1;PMS_P2;Temp;Humidity;BMP_temperature;BMP_pressure;BME280_temperature;BME280_humidity;BME280_pressure;Samples;Min_cycle;Max_cycle;Signal;HPM_P1;HPM_P2
2021/10/29 00:00:05;;;;;;;0.10;0.10;;;8.90;99.90;;;;;;6297378;22;20329;-81
2021/10/29 00:02:32;;;;;;;0.00;0.00;;;9.00;99.90;;;;;;6271279;22;20351;-81
2021/10/29 00:04:59;;;;;;;0.00;0.00;;;8.90;99.90;;;;;;6272999;22;20018;-81
2021/10/29 00:07:26;;;;;;;0.08;0.08;;;8.90;99.90;;;;;;6248461;22;20098;-81
2021/10/29 00:09:52;;;;;;;0.10;0.10;;;8.90;99.90;;;;;;6299151;22;20340;-81
2021/10/29 00:12:21;;;;;;;0.10;0.10;;;8.90;99.90;;;;;;6299026;22;20015;-81
2021/10/29 00:14:49;;;;;;;0.00;0.00;;;8.90;99.90;;;;;;6249071;22;20049;-81
2021/10/29 00:17:17;;;;;;;0.00;0.00;;;8.80;99.90;;;;;;6273588;22;20659;-81
2021/10/29 00:19:44;;;;;;;0.00;0.00;;;8.80;99.90;;;;;;6323824;22;20053;-81
2021/10/29 00:22:11;;;;;;;0.00;0.00;;;8.80;99.90;;;;;;6299053;22;20436;-81
2021/10/29 00:24:38;;;;;;;0.10;0.10;;;8.80;99.90;;;;;;6323799;22;20061;-81
2021/10/29 00:27:05;;;;;;;0.17;0.13;;;8.80;99.90;;;;;;6273517;22;20436;-81
2021/10/29 00:29:32;;;;;;;0.00;0.00;;;8.80;99.90;;;;;;6298588;22;20047;-81
2021/10/29 00:31:58;;;;;;;0.10;0.10;;;8.80;99.90;;;;;;6273304;22;20106;-81
2021/10/29 00:34:25;;;;;;;0.00;0.00;;;8.70;99.90;;;;;;6298783;22;20054;-81
2021/10/29 00:36:52;;;;;;;0.00;0.00;;;8.80;99.90;;;;;;6248025;22;20053;-81
2021/10/29 00:39:19;;;;;;;0.08;0.08;;;8.80;99.90;;;;;;6273589;22;20358;-81
2021/10/29 00:41:46;;;;;;;0.00;0.00;;;8.70;99.90;;;;;;6298498;22;20108;-81
2021/10/29 00:44:24;;;;;;;0.00;0.00;;;8.70;99.90;;;;;;6324245;22;20016;-81
2021/10/29 00:46:51;;;;;;;0.20;0.20;;;8.70;99.90;;;;;;6298161;22;20011;-81
2021/10/29 00:49:19;;;;;;;0.00;0.00;;;8.70;99.90;;;;;;6298425;22;20019;-81
2021/10/29 00:51:47;;;;;;;0.10;0.10;;;8.70;99.90;;;;;;6272695;22;20664;-81
2021/10/29 00:54:16;;;;;;;0.08;0.08;;;8.60;99.90;;;;;;6298524;22;20015;-81
2021/10/29 00:56:45;;;;;;;0.03;0.03;;;8.80;99.90;;;;;;6298099;22;20038;-81
2021/10/29 00:59:12;;;;;;;0.00;0.00;;;8.70;99.90;;;;;;6298346;22;20072;-81
2021/10/29 01:01:39;;;;;;;0.00;0.00;;;8.70;99.90;;;;;;6323506;22;20503;-81
2021/10/29 01:04:06;;;;;;;0.00;0.00;;;8.70;99.90;;;;;;6298639;22;20455;-81
2021/10/29 01:06:33;;;;;;;0.10;0.10;;;8.70;99.90;;;;;;6272628;22;20053;-81
2021/10/29 01:09:00;;;;;;;0.00;0.00;;;8.70;99.90;;;;;;6273691;22;20015;-81
2021/10/29 01:11:27;;;;;;;0.10;0.10;;;8.70;99.90;;;;;;6248280;22;20011;-81
2021/10/29 01:13:54;;;;;;;0.15;0.15;;;8.70;99.90;;;;;;6323129;22;20097;-81
2021/10/29 01:16:22;;;;;;;0.00;0.00;;;8.60;99.90;;;;;;6323071;22;20086;-81
2021/10/29 01:18:49;;;;;;;0.10;0.10;;;8.60;99.90;;;;;;6298090;22;20026;-81
2021/10/29 01:21:17;;;;;;;0.15;0.15;;;8.60;99.90;;;;;;6248262;22;20015;-81
2021/10/29 01:23:44;;;;;;;0.25;0.20;;;8.60;99.90;;;;;;6297461;22;20027;-81
2021/10/29 01:26:14;;;;;;;0.20;0.10;;;8.60;99.90;;;;;;6298395;22;20015;-81
2021/10/29 01:28:41;;;;;;;0.00;0.00;;;8.70;99.90;;;;;;6323407;22;20125;-81
2021/10/29 01:31:08;;;;;;;0.00;0.00;;;8.60;99.90;;;;;;6298211;22;20047;-81
2021/10/29 01:33:35;;;;;;;0.00;0.00;;;8.70;99.90;;;;;;6272917;22;20015;-81
2021/10/29 01:36:02;;;;;;;0.00;0.00;;;8.70;99.90;;;;;;6298338;22;20015;-81
2021/10/29 01:38:30;;;;;;;0.05;0.05;;;8.70;99.90;;;;;;6272811;22;20019;-81
2021/10/29 01:40:57;;;;;;;0.03;0.03;;;8.70;99.90;;;;;;6297860;22;20046;-81
2021/10/29 01:43:23;;;;;;;0.00;0.00;;;8.70;99.90;;;;;;6247852;22;20069;-81
2021/10/29 01:45:50;;;;;;;0.00;0.00;;;8.90;99.90;;;;;;6272148;22;20088;-81
2021/10/29 01:48:17;;;;;;;0.00;0.00;;;8.70;99.90;;;;;;6247453;22;20030;-81
2021/10/29 01:50:44;;;;;;;0.10;0.10;;;8.70;99.90;;;;;;6297485;22;20144;-81
2021/10/29 01:53:10;;;;;;;0.08;0.08;;;8.70;99.90;;;;;;6247555;22;20149;-81
2021/10/29 01:55:37;;;;;;;0.10;0.10;;;8.70;99.90;;;;;;6297625;22;20019;-81
2021/10/29 01:58:04;;;;;;;0.00;0.00;;;8.70;99.90;;;;;;6247637;22;20072;-81
2021/10/29 02:00:31;;;;;;;0.10;0.10;;;8.70;99.90;;;;;;6272830;22;20077;-81
2021/10/29 02:02:57;;;;;;;0.15;0.10;;;8.70;99.90;;;;;;6272331;22;20019;-81
2021/10/29 02:05:24;;;;;;;0.00;0.00;;;8.60;99.90;;;;;;6272594;22;20033;-81
2021/10/29 02:07:51;;;;;;;0.00;0.00;;;8.70;99.90;;;;;;6247212;22;20049;-81
2021/10/29 02:10:17;;;;;;;0.10;0.10;;;8.70;99.90;;;;;;6247209;22;20068;-81
2021/10/29 02:12:44;;;;;;;0.00;0.00;;;8.70;99.90;;;;;;6247291;22;20015;-81
2021/10/29 02:15:11;;;;;;;0.10;0.10;;;8.70;99.90;;;;;;6273022;22;20023;-81
2021/10/29 02:17:37;;;;;;;0.00;0.00;;;8.70;99.90;;;;;;6272642;22;20029;-81
2021/10/29 02:20:05;;;;;;;0.10;0.10;;;8.60;99.90;;;;;;6322871;22;20772;-81
2021/10/29 02:22:32;;;;;;;0.10;0.10;;;8.70;99.90;;;;;;6272489;22;20019;-81
2021/10/29 02:24:59;;;;;;;0.00;0.00;;;8.70;99.90;;;;;;6297511;22;20011;-81
2021/10/29 02:27:25;;;;;;;0.00;0.00;;;8.70;99.90;;;;;;6247470;22;20083;-81
2021/10/29 02:29:52;;;;;;;0.10;0.10;;;8.60;99.90;;;;;;6246790;22;20336;-81
2021/10/29 02:32:19;;;;;;;0.00;0.00;;;8.60;99.90;;;;;;6272447;22;20022;-81
2021/10/29 02:34:45;;;;;;;0.00;0.00;;;8.60;99.90;;;;;;6246887;22;20015;-81
2021/10/29 02:37:12;;;;;;;0.05;0.05;;;8.60;99.90;;;;;;6247298;22;20020;-81
2021/10/29 02:39:39;;;;;;;0.20;0.20;;;8.60;99.90;;;;;;6297611;22;20015;-81
2021/10/29 02:42:06;;;;;;;0.10;0.10;;;8.70;99.90;;;;;;6246508;22;20019;-81
2021/10/29 02:44:32;;;;;;;0.00;0.00;;;8.60;99.90;;;;;;6247137;22;20019;-81
2021/10/29 02:46:59;;;;;;;0.05;0.05;;;8.60;99.90;;;;;;6247041;22;20451;-81
2021/10/29 02:49:26;;;;;;;0.05;0.05;;;8.60;99.90;;;;;;6297440;22;20575;-81
2021/10/29 02:51:53;;;;;;;0.10;0.10;;;8.60;99.90;;;;;;6322333;22;20015;-81
2021/10/29 02:54:19;;;;;;;0.10;0.10;;;8.60;99.90;;;;;;6247080;22;20019;-81
2021/10/29 02:56:47;;;;;;;0.03;0.03;;;8.60;99.90;;;;;;6296986;22;20053;-81
2021/10/29 02:59:13;;;;;;;0.00;0.00;;;8.60;99.90;;;;;;6247394;22;20321;-81
2021/10/29 03:01:40;;;;;;;0.10;0.10;;;8.60;99.90;;;;;;6247096;22;20068;-81
2021/10/29 03:04:07;;;;;;;0.17;0.10;;;8.60;99.90;;;;;;6271792;22;20015;-81
2021/10/29 03:06:34;;;;;;;0.10;0.10;;;8.60;99.90;;;;;;6246811;22;20089;-81
2021/10/29 03:09:00;;;;;;;0.00;0.00;;;8.60;99.90;;;;;;6246527;22;20022;-81
2021/10/29 03:11:27;;;;;;;0.15;0.10;;;8.60;99.90;;;;;;6271956;22;20444;-81
2021/10/29 03:13:54;;;;;;;0.00;0.00;;;8.60;99.90;;;;;;6246545;22;20019;-81
2021/10/29 03:16:21;;;;;;;0.63;0.10;;;8.60;99.90;;;;;;6297162;22;20105;-81
2021/10/29 03:18:48;;;;;;;0.00;0.00;;;8.60;99.90;;;;;;6296349;22;20024;-81
2021/10/29 03:21:15;;;;;;;0.00;0.00;;;8.60;99.90;;;;;;6322766;22;20015;-81
2021/10/29 03:23:42;;;;;;;0.10;0.10;;;8.70;99.90;;;;;;6297214;22;20023;-81
2021/10/29 03:26:10;;;;;;;0.00;0.00;;;8.70;99.90;;;;;;6296886;22;20064;-81
2021/10/29 03:28:37;;;;;;;0.00;0.00;;;8.70;99.90;;;;;;6322830;22;20501;-81
2021/10/29 03:31:03;;;;;;;0.10;0.10;;;8.70;99.90;;;;;;6246590;22;20094;-81
2021/10/29 03:33:36;;;;;;;0.00;0.00;;;8.70;99.90;;;;;;6246958;22;20019;-81
2021/10/29 03:36:04;;;;;;;0.00;0.00;;;8.80;99.90;;;;;;6298156;22;20018;-81
2021/10/29 03:41:32;;;;;;;0.00;0.00;;;8.70;99.90;;;;;;6274115;22;20463;-81
2021/10/29 03:46:49;;;;;;;0.00;0.00;;;8.70;99.90;;;;;;6263415;22;20034;-81
2021/10/29 03:49:24;;;;;;;0.00;0.00;;;8.70;99.90;;;;;;6299015;22;20030;-81
2021/10/29 03:51:58;;;;;;;0.00;0.00;;;8.70;99.90;;;;;;6252083;22;20317;-81
2021/10/29 03:54:29;;;;;;;0.00;0.00;;;8.70;99.90;;;;;;6301049;22;20448;-81
2021/10/29 03:57:10;;;;;;;0.08;0.08;;;8.70;99.90;;;;;;6299991;22;20011;-81
2021/10/29 03:59:37;;;;;;;0.00;0.00;;;8.70;99.90;;;;;;6254969;22;20345;-81
2021/10/29 04:02:07;;;;;;;0.10;0.10;;;8.70;99.90;;;;;;6248201;22;20011;-81
2021/10/29 04:04:34;;;;;;;0.20;0.10;;;8.70;99.90;;;;;;6324517;22;20026;-81
2021/10/29 04:07:00;;;;;;;0.00;0.00;;;8.70;99.90;;;;;;6273461;22;20019;-81
2021/10/29 04:09:27;;;;;;;0.00;0.00;;;8.70;99.90;;;;;;6299083;22;20501;-81
2021/10/29 04:11:54;;;;;;;0.10;0.10;;;8.70;99.90;;;;;;6248499;22;20070;-81
2021/10/29 04:14:25;;;;;;;0.05;0.05;;;8.70;99.90;;;;;;6299198;22;20069;-81
2021/10/29 04:16:52;;;;;;;0.00;0.00;;;8.60;99.90;;;;;;6275715;22;20019;-81
2021/10/29 04:19:18;;;;;;;0.00;0.00;;;8.60;99.90;;;;;;6248083;22;20466;-81
2021/10/29 04:21:45;;;;;;;0.00;0.00;;;8.60;99.90;;;;;;6298887;22;20057;-81
2021/10/29 04:24:12;;;;;;;0.17;0.17;;;8.60;99.90;;;;;;6297988;22;20023;-81
2021/10/29 04:26:40;;;;;;;0.00;0.00;;;8.60;99.90;;;;;;6248556;22;20344;-81
2021/10/29 04:29:14;;;;;;;0.10;0.10;;;8.60;99.90;;;;;;6273156;22;20447;-81
2021/10/29 04:31:51;;;;;;;0.10;0.10;;;8.60;99.90;;;;;;6275311;22;20878;-81
2021/10/29 04:34:19;;;;;;;0.00;0.00;;;8.60;99.90;;;;;;6274843;22;20448;-81
2021/10/29 04:36:47;;;;;;;0.10;0.10;;;8.60;99.90;;;;;;6324270;22;20076;-81
2021/10/29 04:39:14;;;;;;;0.00;0.00;;;8.50;99.90;;;;;;6273295;22;20428;-81
2021/10/29 04:41:43;;;;;;;0.00;0.00;;;8.50;99.90;;;;;;6298978;22;20019;-81
2021/10/29 04:44:10;;;;;;;0.03;0.03;;;8.50;99.90;;;;;;6323880;22;20030;-81
2021/10/29 04:46:37;;;;;;;0.03;0.03;;;8.60;99.90;;;;;;6324364;22;20011;-81
2021/10/29 04:49:04;;;;;;;0.00;0.00;;;8.50;99.90;;;;;;6298036;22;20019;-81
2021/10/29 04:51:33;;;;;;;0.10;0.10;;;8.50;99.90;;;;;;6298205;22;20015;-81
2021/10/29 04:54:01;;;;;;;0.00;0.00;;;8.60;99.90;;;;;;6323667;22;20011;-81
2021/10/29 04:56:28;;;;;;;0.10;0.10;;;8.60;99.90;;;;;;6298698;22;20015;-81
2021/10/29 04:58:54;;;;;;;0.00;0.00;;;8.60;99.90;;;;;;6298630;22;20022;-81
2021/10/29 05:01:21;;;;;;;0.00;0.00;;;8.60;99.90;;;;;;6247325;22;20026;-80
2021/10/29 05:03:48;;;;;;;0.10;0.10;;;8.60;99.90;;;;;;6247916;22;20352;-81
2021/10/29 05:06:14;;;;;;;0.03;0.03;;;8.50;99.90;;;;;;6272782;22;20442;-81
2021/10/29 05:08:41;;;;;;;0.00;0.00;;;8.50;99.90;;;;;;6298451;22;20098;-81
2021/10/29 05:11:08;;;;;;;0.20;0.20;;;8.50;99.90;;;;;;6247601;22;20015;-81
2021/10/29 05:13:34;;;;;;;0.10;0.10;;;8.60;99.90;;;;;;6298478;22;20038;-81
2021/10/29 05:16:01;;;;;;;0.00;0.00;;;8.60;99.90;;;;;;6297912;22;20058;-81
2021/10/29 05:18:28;;;;;;;0.10;0.10;;;8.60;99.90;;;;;;6247816;22;20058;-81
2021/10/29 05:20:55;;;;;;;0.10;0.10;;;8.50;99.90;;;;;;6248123;22;20058;-81
2021/10/29 05:23:22;;;;;;;0.05;0.05;;;8.60;99.90;;;;;;6297807;22;20030;-81
2021/10/29 05:25:49;;;;;;;0.00;0.00;;;8.60;99.90;;;;;;6273474;22;20015;-81
2021/10/29 05:28:16;;;;;;;0.13;0.13;;;8.60;99.90;;;;;;6273013;22;20011;-81
2021/10/29 05:30:43;;;;;;;0.00;0.00;;;8.60;99.90;;;;;;6250573;22;20023;-81
2021/10/29 05:33:09;;;;;;;0.00;0.00;;;8.60;99.90;;;;;;6300377;22;20015;-81
2021/10/29 05:35:36;;;;;;;0.10;0.10;;;8.60;99.90;;;;;;6247894;22;20463;-81
2021/10/29 05:38:03;;;;;;;0.10;0.10;;;8.60;99.90;;;;;;6272887;22;20015;-81
2021/10/29 05:40:30;;;;;;;0.00;0.00;;;8.50;99.90;;;;;;6248425;22;20050;-81
2021/10/29 05:42:57;;;;;;;0.00;0.00;;;8.50;99.90;;;;;;6323606;22;20015;-80
2021/10/29 05:45:24;;;;;;;0.20;0.20;;;8.60;99.90;;;;;;6297678;22;20019;-81
2021/10/29 05:47:50;;;;;;;0.03;0.03;;;8.40;99.90;;;;;;6323391;22;20054;-81
2021/10/29 05:50:17;;;;;;;0.00;0.00;;;8.50;99.90;;;;;;6297575;22;20023;-81
2021/10/29 05:52:45;;;;;;;0.00;0.00;;;8.50;99.90;;;;;;6247724;22;20420;-81
2021/10/29 05:55:14;;;;;;;0.10;0.10;;;8.70;99.90;;;;;;6297756;22;20015;-81
2021/10/29 05:58:00;;;;;;;0.08;0.08;;;8.50;99.90;;;;;;6297824;22;20467;-81
2021/10/29 06:00:30;;;;;;;0.00;0.00;;;8.60;99.90;;;;;;6272096;22;20428;-81
2021/10/29 06:03:04;;;;;;;0.00;0.00;;;8.50;99.90;;;;;;6297418;22;20073;-81
2021/10/29 06:05:34;;;;;;;0.10;0.10;;;8.50;99.90;;;;;;6297551;22;20015;-81
2021/10/29 06:08:01;;;;;;;0.28;0.28;;;8.60;99.90;;;;;;6272856;22;20547;-81
2021/10/29 06:10:28;;;;;;;0.10;0.10;;;8.60;99.90;;;;;;6246760;22;20050;-81
2021/10/29 06:12:55;;;;;;;0.10;0.10;;;8.60;99.90;;;;;;6297380;22;20016;-81
2021/10/29 06:15:23;;;;;;;0.38;0.30;;;8.60;99.90;;;;;;6296999;22;20029;-81
2021/10/29 06:17:51;;;;;;;0.10;0.10;;;8.60;99.90;;;;;;6297100;22;20448;-81
2021/10/29 06:20:18;;;;;;;0.20;0.20;;;8.50;99.90;;;;;;6296914;22;20019;-81
2021/10/29 06:22:48;;;;;;;0.10;0.10;;;8.50;99.90;;;;;;6247496;22;20321;-81
2021/10/29 06:25:20;;;;;;;0.00;0.00;;;8.50;99.90;;;;;;6272124;22;20022;-81
2021/10/29 06:30:44;;;;;;;0.05;0.05;;;8.40;99.90;;;;;;6322838;22;20444;-81
2021/10/29 06:33:15;;;;;;;0.00;0.00;;;8.50;99.90;;;;;;6271676;22;20138;-81
2021/10/29 06:35:42;;;;;;;0.00;0.00;;;8.50;99.90;;;;;;6322970;22;20019;-81
2021/10/29 06:38:11;;;;;;;0.00;0.00;;;8.40;99.90;;;;;;6247158;22;20145;-80
2021/10/29 06:40:41;;;;;;;0.00;0.00;;;8.40;99.90;;;;;;6272253;22;20015;-81
2021/10/29 06:43:17;;;;;;;0.10;0.10;;;8.40;99.90;;;;;;6298406;22;20025;-81
2021/10/29 06:46:04;;;;;;;0.10;0.10;;;8.50;99.90;;;;;;6299126;22;20007;-81
2021/10/29 07:40:04;;;;;;;0.10;0.10;;;9.10;99.90;;;;;;6300799;22;20015;-82
2021/10/29 07:42:44;;;;;;;0.43;0.43;;;9.10;99.90;;;;;;6296112;22;20019;-81
2021/10/29 07:45:12;;;;;;;0.10;0.10;;;9.10;99.90;;;;;;6322764;22;20098;-82
2021/10/29 07:47:39;;;;;;;0.10;0.10;;;9.20;99.90;;;;;;6271253;22;20072;-82
2021/10/29 07:50:09;;;;;;;0.00;0.00;;;9.20;99.90;;;;;;6272179;22;20020;-85
2021/10/29 07:52:37;;;;;;;0.13;0.13;;;9.20;99.90;;;;;;6272084;22;20012;-85
2021/10/29 07:55:06;;;;;;;0.00;0.00;;;9.30;99.90;;;;;;6297165;22;20007;-85
2021/10/29 07:57:32;;;;;;;0.00;0.00;;;9.30;99.90;;;;;;6271391;22;20022;-84
2021/10/29 08:00:02;;;;;;;0.15;0.15;;;9.40;99.90;;;;;;6246971;22;20011;-83
2021/10/29 08:02:30;;;;;;;0.10;0.10;;;9.40;99.90;;;;;;6247677;22;20015;-83
2021/10/29 08:04:57;;;;;;;0.00;0.00;;;9.50;99.90;;;;;;6247283;22;20016;-84
2021/10/29 08:07:26;;;;;;;0.00;0.00;;;9.60;99.90;;;;;;6296766;22;20444;-84
2021/10/29 08:09:53;;;;;;;0.00;0.00;;;9.70;99.90;;;;;;6322650;22;20019;-88
2021/10/29 08:12:20;;;;;;;0.00;0.00;;;9.70;99.90;;;;;;6272253;22;20142;-81
2021/10/29 08:14:48;;;;;;;0.00;0.00;;;9.80;99.90;;;;;;6271499;22;20145;-83
2021/10/29 08:17:17;;;;;;;0.00;0.00;;;9.90;99.90;;;;;;6297408;22;20015;-84
2021/10/29 08:19:45;;;;;;;0.00;0.00;;;10.00;99.90;;;;;;6271469;22;20016;-85
2021/10/29 08:22:12;;;;;;;0.00;0.00;;;10.10;99.90;;;;;;6322430;22;20407;-84
2021/10/29 08:24:39;;;;;;;0.00;0.00;;;10.20;99.90;;;;;;6271576;22;20020;-83
2021/10/29 08:27:06;;;;;;;0.00;0.00;;;10.20;99.90;;;;;;6324573;22;20019;-85
2021/10/29 08:29:33;;;;;;;0.00;0.00;;;10.30;99.90;;;;;;6273367;22;20016;-85
2021/10/29 08:32:00;;;;;;;0.10;0.10;;;10.40;99.90;;;;;;6298897;22;20069;-83
2021/10/29 08:34:27;;;;;;;0.00;0.00;;;10.50;99.90;;;;;;6298299;22;20026;-85
2021/10/29 08:37:02;;;;;;;0.00;0.00;;;10.60;99.90;;;;;;6273689;22;20340;-84
2021/10/29 08:39:29;;;;;;;0.13;0.13;;;10.70;99.90;;;;;;6298209;22;20019;-84
2021/10/29 08:41:58;;;;;;;0.10;0.10;;;10.80;99.90;;;;;;6298627;22;20015;-83
2021/10/29 08:44:25;;;;;;;0.00;0.00;;;10.90;99.90;;;;;;6248656;22;20047;-83
2021/10/29 08:46:52;;;;;;;0.25;0.25;;;11.00;99.90;;;;;;6298716;22;20484;-84
2021/10/29 08:49:20;;;;;;;0.00;0.00;;;11.10;99.90;;;;;;6273032;22;20322;-84
2021/10/29 08:51:48;;;;;;;0.28;0.22;;;11.20;99.90;;;;;;6298165;22;20019;-83
2021/10/29 08:54:15;;;;;;;0.00;0.00;;;11.20;99.90;;;;;;6248103;22;20098;-83
2021/10/29 08:56:42;;;;;;;0.00;0.00;;;11.30;99.90;;;;;;6323446;22;20055;-84
2021/10/29 08:59:13;;;;;;;0.00;0.00;;;11.50;99.90;;;;;;6247980;22;20019;-84
2021/10/29 09:02:10;;;;;;;0.00;0.00;;;11.50;99.90;;;;;;6298176;22;20094;-84
2021/10/29 09:04:50;;;;;;;;;;;11.60;99.90;;;;;;6298503;22;20145;-81
2021/10/29 09:32:29;;;;;;;0.00;0.00;;;12.60;99.90;;;;;;6323642;22;20015;-82
2021/10/29 09:35:12;;;;;;;0.00;0.00;;;12.70;99.90;;;;;;6323567;22;20038;-81
2021/10/29 09:38:03;;;;;;;0.00;0.00;;;12.70;99.90;;;;;;6297396;22;20023;-79
2021/10/29 09:40:33;;;;;;;0.10;0.10;;;12.80;99.90;;;;;;6298098;22;20069;-81
2021/10/29 09:43:20;;;;;;;0.00;0.00;;;12.90;99.90;;;;;;6298087;22;20013;-80
2021/10/29 09:46:13;;;;;;;0.00;0.00;;;13.00;99.90;;;;;;6273056;22;20453;-82
2021/10/29 09:48:49;;;;;;;0.00;0.00;;;13.10;99.90;;;;;;6297478;22;20023;-82
2021/10/29 09:51:17;;;;;;;0.00;0.00;;;13.10;99.90;;;;;;6251506;22;20023;-81
2021/10/29 09:54:03;;;;;;;0.00;0.00;;;13.20;99.90;;;;;;6271795;22;20157;-77
2021/10/29 09:59:01;;;;;;;0.00;0.00;;;13.40;99.90;;;;;;6323001;22;20015;-79
2021/10/29 10:01:28;;;;;;;0.00;0.00;;;13.50;99.90;;;;;;6272722;22;20448;-78
2021/10/29 10:04:17;;;;;;;0.00;0.00;;;13.60;99.90;;;;;;6301828;22;20019;-79
2021/10/29 10:06:45;;;;;;;0.10;0.10;;;13.60;99.90;;;;;;6322837;22;20015;-78
2021/10/29 10:09:12;;;;;;;0.10;0.10;;;13.60;99.90;;;;;;6297795;22;20499;-78
2021/10/29 10:11:42;;;;;;;0.00;0.00;;;13.70;99.90;;;;;;6322317;22;20015;-77
2021/10/29 10:14:10;;;;;;;0.00;0.00;;;13.70;99.90;;;;;;6322829;22;20026;-80
2021/10/29 10:16:39;;;;;;;0.00;0.00;;;13.70;99.90;;;;;;6271966;22;20019;-80
2021/10/29 10:19:07;;;;;;;0.03;0.03;;;13.80;99.90;;;;;;6322386;22;20019;-79
2021/10/29 10:21:41;;;;;;;0.00;0.00;;;13.90;99.90;;;;;;6272637;22;20446;-81
2021/10/29 10:24:14;;;;;;;0.00;0.00;;;13.90;99.90;;;;;;6298753;22;20022;-77
2021/10/29 10:26:57;;;;;;;0.00;0.00;;;14.00;99.90;;;;;;6297793;22;20018;-79
2021/10/29 10:41:04;;;;;;;0.10;0.10;;;14.30;99.90;;;;;;6322500;22;20019;-78
2021/10/29 10:46:20;;;;;;;0.00;0.00;;;14.40;99.90;;;;;;6297170;22;20015;-78
2021/10/29 10:54:12;;;;;;;0.00;0.00;;;14.60;99.90;;;;;;6321604;22;20015;-78
2021/10/29 10:59:53;;;;;;;0.00;0.00;;;14.70;99.90;;;;;;6322084;22;20019;-78
2021/10/29 11:10:24;;;;;;;0.00;0.00;;;14.70;99.90;;;;;;6270212;22;20022;-81
2021/10/29 11:12:50;;;;;;;0.00;0.00;;;14.80;99.90;;;;;;6295738;22;20015;-81
2021/10/29 11:15:24;;;;;;;0.00;0.00;;;14.80;99.90;;;;;;6295711;22;20021;-82
2021/10/29 11:17:57;;;;;;;0.00;0.00;;;14.80;99.90;;;;;;6294937;22;20105;-77
2021/10/29 11:20:56;;;;;;;0.10;0.10;;;14.70;99.90;;;;;;6320758;22;20391;-78
2021/10/29 11:23:28;;;;;;;0.00;0.00;;;14.70;99.90;;;;;;6296957;22;20351;-79
2021/10/29 11:26:02;;;;;;;0.08;0.08;;;14.70;99.90;;;;;;6297149;22;20098;-81
2021/10/29 11:28:46;;;;;;;0.10;0.05;;;14.70;99.90;;;;;;6297034;22;20090;-81
2021/10/29 11:31:17;;;;;;;0.00;0.00;;;14.70;99.90;;;;;;6322472;22;20370;-81
2021/10/29 11:33:49;;;;;;;0.00;0.00;;;14.80;99.90;;;;;;6296511;22;20321;-80
2021/10/29 11:36:27;;;;;;;0.00;0.00;;;14.90;99.90;;;;;;6321818;22;20348;-81
2021/10/29 11:38:55;;;;;;;0.00;0.00;;;14.90;99.90;;;;;;6296273;22;20046;-81
2021/10/29 11:41:25;;;;;;;0.00;0.00;;;15.00;99.90;;;;;;6246323;22;20023;-80
2021/10/29 11:43:59;;;;;;;0.05;0.05;;;14.90;99.90;;;;;;6321572;22;20026;-80
2021/10/29 11:46:27;;;;;;;0.00;0.00;;;15.00;99.90;;;;;;6322422;22;20444;-82
2021/10/29 11:48:54;;;;;;;1.27;0.30;;;15.00;99.90;;;;;;6322024;22;20037;-81
2021/10/29 11:51:23;;;;;;;0.03;0.03;;;15.00;99.90;;;;;;6297053;22;20126;-80
2021/10/29 11:53:58;;;;;;;0.00;0.00;;;14.90;99.90;;;;;;6246524;22;20313;-81
2021/10/29 11:56:31;;;;;;;0.00;0.00;;;15.00;99.90;;;;;;6322721;22;20455;-81
2021/10/29 12:09:43;;;;;;;0.00;0.00;;;15.00;99.90;;;;;;6280261;22;20463;-81
2021/10/29 12:12:14;;;;;;;0.00;0.00;;;15.00;99.90;;;;;;6299308;22;20003;-82
2021/10/29 12:14:45;;;;;;;0.10;0.10;;;14.90;99.90;;;;;;6274614;22;20313;-82
2021/10/29 12:19:52;;;;;;;0.00;0.00;;;14.90;99.90;;;;;;6324620;22;20085;-82
2021/10/29 12:22:32;;;;;;;0.00;0.00;;;15.00;99.90;;;;;;6274696;22;20015;-82
2021/10/29 12:25:08;;;;;;;0.00;0.00;;;15.00;99.90;;;;;;6278924;22;20145;-81
2021/10/29 12:27:47;;;;;;;0.05;0.00;;;15.10;99.90;;;;;;6298640;22;20073;-81
2021/10/29 12:33:21;;;;;;;0.00;0.00;;;15.20;99.90;;;;;;6324354;22;20022;-82
2021/10/29 13:04:00;;;;;;;0.20;0.20;;;15.40;99.90;;;;;;6322391;22;20019;-82
2021/10/29 13:06:33;;;;;;;0.10;0.10;;;15.40;99.90;;;;;;6324024;22;20085;-82
2021/10/29 13:09:02;;;;;;;0.00;0.00;;;15.40;99.90;;;;;;6298090;22;20325;-85
2021/10/29 13:11:34;;;;;;;0.00;0.00;;;15.30;99.90;;;;;;6298184;22;20021;-81
2021/10/29 13:14:04;;;;;;;0.00;0.00;;;15.30;99.90;;;;;;6272977;22;20015;-83
2021/10/29 13:16:31;;;;;;;0.00;0.00;;;15.30;99.90;;;;;;6249689;22;20069;-83
2021/10/29 13:37:41;;;;;;;0.10;0.10;;;14.90;99.90;;;;;;6298543;22;20016;-81
2021/10/29 14:29:11;;;;;;;0.00;0.00;;;14.80;99.90;;;;;;6301468;22;20015;-82
2021/10/29 14:34:17;;;;;;;0.00;0.00;;;14.70;99.90;;;;;;6296444;22;20514;-82
2021/10/29 14:47:24;;;;;;;0.00;0.00;;;14.90;99.90;;;;;;6322762;22;20015;-82
2021/10/29 14:50:13;;;;;;;0.00;0.00;;;14.90;99.90;;;;;;6252211;22;20015;-82
2021/10/29 15:32:55;;;;;;;0.00;0.00;;;14.40;99.90;;;;;;6322867;22;20015;-83
2021/10/29 15:51:24;;;;;;;0.00;0.00;;;13.90;99.90;;;;;;6297083;22;20015;-83
2021/10/29 15:53:52;;;;;;;0.13;0.10;;;13.90;99.90;;;;;;6246849;22;20019;-83
2021/10/29 15:59:09;;;;;;;0.05;0.05;;;13.80;99.90;;;;;;6297798;22;20094;-83
2021/10/29 16:18:24;;;;;;;0.07;0.07;;;13.50;99.90;;;;;;6300170;22;20049;-84
2021/10/29 16:20:50;;;;;;;0.20;0.20;;;13.50;99.90;;;;;;6296489;22;20094;-83
2021/10/29 16:23:18;;;;;;;0.00;0.00;;;13.40;99.90;;;;;;6246358;22;20078;-84
2021/10/29 16:26:08;;;;;;;0.00;0.00;;;13.40;99.90;;;;;;6246950;22;20013;-84
2021/10/29 16:28:33;;;;;;;0.00;0.00;;;13.30;99.90;;;;;;6279482;22;20017;-84
2021/10/29 16:31:01;;;;;;;0.00;0.00;;;13.30;99.90;;;;;;6247472;22;20047;-84
2021/10/29 16:33:37;;;;;;;0.00;0.00;;;13.30;99.90;;;;;;6271577;22;20448;-84
2021/10/29 16:36:05;;;;;;;0.00;0.00;;;13.30;99.90;;;;;;6322346;22;20329;-84
2021/10/29 16:38:33;;;;;;;0.00;0.00;;;13.20;99.90;;;;;;6296408;22;20026;-84
2021/10/29 16:41:00;;;;;;;0.00;0.00;;;13.20;99.90;;;;;;6296621;22;20023;-82
2021/10/29 16:43:28;;;;;;;0.25;0.10;;;13.10;99.90;;;;;;6322067;22;20677;-83
2021/10/29 16:45:56;;;;;;;0.00;0.00;;;13.20;99.90;;;;;;6272096;22;20017;-83
2021/10/29 16:48:24;;;;;;;0.00;0.00;;;13.10;99.90;;;;;;6298483;22;20026;-83
2021/10/29 16:50:52;;;;;;;0.17;0.10;;;13.10;99.90;;;;;;6273773;22;20352;-83
2021/10/29 16:53:19;;;;;;;0.00;0.00;;;13.10;99.90;;;;;;6273566;22;20019;-84
2021/10/29 16:55:46;;;;;;;0.00;0.00;;;13.10;99.90;;;;;;6298506;22;20482;-84
2021/10/29 16:58:14;;;;;;;0.00;0.00;;;13.00;99.90;;;;;;6248639;22;20801;-84
2021/10/29 17:00:41;;;;;;;0.00;0.00;;;13.00;99.90;;;;;;6297757;22;20019;-84
2021/10/29 17:03:09;;;;;;;0.03;0.03;;;12.90;99.90;;;;;;6298471;22;20015;-84
2021/10/29 17:05:36;;;;;;;0.00;0.00;;;12.90;99.90;;;;;;6298147;22;20348;-84
2021/10/29 17:08:04;;;;;;;0.00;0.00;;;12.90;99.90;;;;;;6273407;22;20015;-84
2021/10/29 17:10:34;;;;;;;0.00;0.00;;;12.80;99.90;;;;;;6323384;22;20015;-84
2021/10/29 17:13:02;;;;;;;0.00;0.00;;;12.80;99.90;;;;;;6298808;22;20023;-84
2021/10/29 17:15:29;;;;;;;0.00;0.00;;;12.70;99.90;;;;;;6297841;22;20015;-84
2021/10/29 17:17:56;;;;;;;0.00;0.00;;;12.70;99.90;;;;;;6298242;22;20056;-84
2021/10/29 17:20:23;;;;;;;0.00;0.00;;;12.70;99.90;;;;;;6298333;22;20019;-84
2021/10/29 17:22:50;;;;;;;0.10;0.10;;;12.70;99.90;;;;;;6248199;22;20011;-84
2021/10/29 17:25:17;;;;;;;0.00;0.00;;;12.70;99.90;;;;;;6273123;22;20472;-84
2021/10/29 17:27:43;;;;;;;0.00;0.00;;;12.70;99.90;;;;;;6298190;22;20019;-84
2021/10/29 17:30:13;;;;;;;0.00;0.00;;;12.70;99.90;;;;;;6248099;22;20023;-84
2021/10/29 17:32:46;;;;;;;0.00;0.00;;;12.70;99.90;;;;;;6273336;22;20047;-81
2021/10/29 17:35:14;;;;;;;0.13;0.10;;;12.70;99.90;;;;;;6298202;22;20023;-83
2021/10/29 17:37:41;;;;;;;0.00;0.00;;;12.70;99.90;;;;;;6297712;22;20057;-84
2021/10/29 17:40:11;;;;;;;0.43;0.10;;;12.60;99.90;;;;;;6298400;22;20523;-83
2021/10/29 17:42:38;;;;;;;0.10;0.10;;;12.60;99.90;;;;;;6272908;22;20016;-83
2021/10/29 17:45:08;;;;;;;0.10;0.10;;;12.60;99.90;;;;;;6273160;22;20452;-84
2021/10/29 17:47:36;;;;;;;0.00;0.00;;;12.60;99.90;;;;;;6297894;22;20053;-83
2021/10/29 17:50:04;;;;;;;0.00;0.00;;;12.50;99.90;;;;;;6298146;22;20019;-84
2021/10/29 17:52:31;;;;;;;0.10;0.10;;;12.60;99.90;;;;;;6272534;22;20050;-83
2021/10/29 17:54:59;;;;;;;0.00;0.00;;;12.70;99.90;;;;;;6323610;22;20019;-84
2021/10/29 17:57:27;;;;;;;0.00;0.00;;;12.70;99.90;;;;;;6248460;22;20047;-84
2021/10/29 17:59:55;;;;;;;0.00;0.00;;;12.70;99.90;;;;;;6272744;22;20022;-84
2021/10/29 18:02:23;;;;;;;0.00;0.00;;;12.80;99.90;;;;;;6272876;22;20644;-84
2021/10/29 18:04:51;;;;;;;0.00;0.00;;;12.90;99.90;;;;;;6297482;22;20014;-83
2021/10/29 18:07:21;;;;;;;0.00;0.00;;;12.90;99.90;;;;;;6297565;22;20015;-83
2021/10/29 18:09:48;;;;;;;0.00;0.00;;;13.00;99.90;;;;;;6297119;22;20379;-85
2021/10/29 18:12:15;;;;;;;0.00;0.00;;;13.00;99.90;;;;;;6297859;22;20065;-84
2021/10/29 18:14:43;;;;;;;0.00;0.00;;;13.00;99.90;;;;;;6297447;22;20381;-83
2021/10/29 18:17:13;;;;;;;0.00;0.00;;;13.00;99.90;;;;;;6323286;22;20011;-84
2021/10/29 18:19:40;;;;;;;0.00;0.00;;;13.00;99.90;;;;;;6272416;22;20395;-83
2021/10/29 18:22:07;;;;;;;0.00;0.00;;;13.00;99.90;;;;;;6297689;22;20015;-84